sensor_id;sensor_type;location;lat;lon;timestamp;P1;durP1;ratioP1;P2;durP2;ratioP2
17175;SDS011;8703;48.996;9.594;2023-02-15T00:00:54;14.80;;;8.17;;
17175;SDS011;8703;48.996;9.594;2023-02-15T00:03:31;14.23;;;7.63;;
17175;SDS011;8703;48.996;9.594;2023-02-15T00:05:59;12.50;;;7.43;;
17175;SDS011;8703;48.996;9.594;2023-02-15T00:08:26;15.60;;;7.80;;
17175;SDS011;8703;48.996;9.594;2023-02-15T00:10:53;13.43;;;7.03;;
17175;SDS011;8703;48.996;9.594;2023-02-15T00:13:31;15.17;;;7.87;;
17175;SDS011;8703;48.996;9.594;2023-02-15T00:16:00;14.20;;;7.67;;
17175;SDS011;8703;48.996;9.594;2023-02-15T00:18:28;14.03;;;8.03;;
17175;SDS011;8703;48.996;9.594;2023-02-15T00:20:57;14.37;;;7.57;;
17175;SDS011;8703;48.996;9.594;2023-02-15T00:23:28;12.53;;;7.03;;
17175;SDS011;8703;48.996;9.594;2023-02-15T00:26:02;13.63;;;7.07;;
17175;SDS011;8703;48.996;9.594;2023-02-15T00:28:31;12.00;;;6.70;;
17175;SDS011;8703;48.996;9.594;2023-02-15T00:31:05;12.40;;;7.00;;
17175;SDS011;8703;48.996;9.594;2023-02-15T00:33:33;14.07;;;6.60;;
17175;SDS011;8703;48.996;9.594;2023-02-15T00:36:02;14.33;;;7.13;;
17175;SDS011;8703;48.996;9.594;2023-02-15T00:38:31;12.53;;;7.17;;
17175;SDS011;8703;48.996;9.594;2023-02-15T00:40:59;13.57;;;7.10;;
17175;SDS011;8703;48.996;9.594;2023-02-15T00:43:27;13.77;;;7.73;;
17175;SDS011;8703;48.996;9.594;2023-02-15T00:45:56;12.70;;;7.33;;
17175;SDS011;8703;48.996;9.594;2023-02-15T00:48:23;14.57;;;7.80;;
17175;SDS011;8703;48.996;9.594;2023-02-15T00:50:52;13.77;;;6.97;;
17175;SDS011;8703;48.996;9.594;2023-02-15T00:53:23;15.77;;;7.67;;
17175;SDS011;8703;48.996;9.594;2023-02-15T00:55:52;14.40;;;7.40;;
17175;SDS011;8703;48.996;9.594;2023-02-15T00:58:19;13.87;;;7.07;;
17175;SDS011;8703;48.996;9.594;2023-02-15T01:00:47;13.13;;;7.27;;
17175;SDS011;8703;48.996;9.594;2023-02-15T01:03:15;16.17;;;7.37;;
17175;SDS011;8703;48.996;9.594;2023-02-15T01:05:43;13.53;;;7.00;;
17175;SDS011;8703;48.996;9.594;2023-02-15T01:08:12;16.17;;;7.23;;
17175;SDS011;8703;48.996;9.594;2023-02-15T01:10:40;13.87;;;7.03;;
17175;SDS011;8703;48.996;9.594;2023-02-15T01:13:09;11.67;;;6.60;;
17175;SDS011;8703;48.996;9.594;2023-02-15T01:15:36;12.13;;;6.90;;
17175;SDS011;8703;48.996;9.594;2023-02-15T01:18:03;13.07;;;7.17;;
17175;SDS011;8703;48.996;9.594;2023-02-15T01:20:33;15.43;;;7.40;;
17175;SDS011;8703;48.996;9.594;2023-02-15T01:23:04;14.13;;;7.40;;
17175;SDS011;8703;48.996;9.594;2023-02-15T01:25:32;14.80;;;8.03;;
17175;SDS011;8703;48.996;9.594;2023-02-15T01:28:02;13.30;;;7.60;;
17175;SDS011;8703;48.996;9.594;2023-02-15T01:30:30;11.43;;;7.13;;
17175;SDS011;8703;48.996;9.594;2023-02-15T01:32:58;16.10;;;7.80;;
17175;SDS011;8703;48.996;9.594;2023-02-15T01:35:26;14.43;;;7.50;;
17175;SDS011;8703;48.996;9.594;2023-02-15T01:37:54;12.53;;;6.87;;
17175;SDS011;8703;48.996;9.594;2023-02-15T01:40:21;12.50;;;7.33;;
17175;SDS011;8703;48.996;9.594;2023-02-15T01:42:50;13.40;;;7.40;;
17175;SDS011;8703;48.996;9.594;2023-02-15T01:45:20;15.03;;;7.03;;
17175;SDS011;8703;48.996;9.594;2023-02-15T01:47:50;13.67;;;7.60;;
17175;SDS011;8703;48.996;9.594;2023-02-15T01:50:21;13.43;;;7.33;;
17175;SDS011;8703;48.996;9.594;2023-02-15T01:52:52;13.33;;;7.57;;
17175;SDS011;8703;48.996;9.594;2023-02-15T01:55:24;13.53;;;7.20;;
17175;SDS011;8703;48.996;9.594;2023-02-15T01:57:54;14.03;;;7.90;;
17175;SDS011;8703;48.996;9.594;2023-02-15T02:00:23;13.27;;;7.43;;
17175;SDS011;8703;48.996;9.594;2023-02-15T02:02:51;15.73;;;8.13;;
17175;SDS011;8703;48.996;9.594;2023-02-15T02:05:20;12.70;;;7.30;;
17175;SDS011;8703;48.996;9.594;2023-02-15T02:07:47;13.67;;;7.57;;
17175;SDS011;8703;48.996;9.594;2023-02-15T02:10:18;13.83;;;7.70;;
17175;SDS011;8703;48.996;9.594;2023-02-15T02:12:47;13.13;;;7.10;;
17175;SDS011;8703;48.996;9.594;2023-02-15T02:15:16;13.60;;;7.20;;
17175;SDS011;8703;48.996;9.594;2023-02-15T02:17:49;14.40;;;7.20;;
17175;SDS011;8703;48.996;9.594;2023-02-15T02:20:30;13.80;;;7.43;;
17175;SDS011;8703;48.996;9.594;2023-02-15T02:23:20;14.20;;;7.63;;
17175;SDS011;8703;48.996;9.594;2023-02-15T02:26:01;14.40;;;7.30;;
17175;SDS011;8703;48.996;9.594;2023-02-15T02:28:43;14.30;;;7.07;;
17175;SDS011;8703;48.996;9.594;2023-02-15T02:31:25;13.97;;;7.90;;
17175;SDS011;8703;48.996;9.594;2023-02-15T02:34:06;13.33;;;7.47;;
17175;SDS011;8703;48.996;9.594;2023-02-15T02:36:37;11.80;;;6.80;;
17175;SDS011;8703;48.996;9.594;2023-02-15T02:39:12;13.57;;;7.57;;
17175;SDS011;8703;48.996;9.594;2023-02-15T02:41:48;13.17;;;7.43;;
17175;SDS011;8703;48.996;9.594;2023-02-15T02:44:22;13.83;;;7.23;;
17175;SDS011;8703;48.996;9.594;2023-02-15T02:46:52;10.83;;;6.60;;
17175;SDS011;8703;48.996;9.594;2023-02-15T02:49:30;13.37;;;7.20;;
17175;SDS011;8703;48.996;9.594;2023-02-15T02:51:59;14.60;;;7.37;;
17175;SDS011;8703;48.996;9.594;2023-02-15T02:54:27;14.23;;;7.47;;
17175;SDS011;8703;48.996;9.594;2023-02-15T02:56:55;12.17;;;7.13;;
17175;SDS011;8703;48.996;9.594;2023-02-15T02:59:25;15.50;;;7.90;;
17175;SDS011;8703;48.996;9.594;2023-02-15T03:01:54;12.43;;;7.27;;
17175;SDS011;8703;48.996;9.594;2023-02-15T03:04:24;13.47;;;7.50;;
17175;SDS011;8703;48.996;9.594;2023-02-15T03:06:57;14.63;;;7.80;;
17175;SDS011;8703;48.996;9.594;2023-02-15T03:09:26;13.63;;;7.47;;
17175;SDS011;8703;48.996;9.594;2023-02-15T03:11:59;13.07;;;7.23;;
17175;SDS011;8703;48.996;9.594;2023-02-15T03:14:28;14.63;;;7.80;;
17175;SDS011;8703;48.996;9.594;2023-02-15T03:16:55;14.07;;;7.37;;
17175;SDS011;8703;48.996;9.594;2023-02-15T03:19:23;12.70;;;7.00;;
17175;SDS011;8703;48.996;9.594;2023-02-15T03:21:54;12.80;;;7.43;;
17175;SDS011;8703;48.996;9.594;2023-02-15T03:24:29;13.10;;;6.90;;
17175;SDS011;8703;48.996;9.594;2023-02-15T03:26:59;14.27;;;8.03;;
17175;SDS011;8703;48.996;9.594;2023-02-15T03:29:28;15.73;;;7.80;;
17175;SDS011;8703;48.996;9.594;2023-02-15T03:31:56;14.80;;;8.00;;
17175;SDS011;8703;48.996;9.594;2023-02-15T03:34:27;14.43;;;7.27;;
17175;SDS011;8703;48.996;9.594;2023-02-15T03:36:56;13.70;;;7.60;;
17175;SDS011;8703;48.996;9.594;2023-02-15T03:39:28;14.17;;;8.30;;
17175;SDS011;8703;48.996;9.594;2023-02-15T03:42:00;15.00;;;7.67;;
17175;SDS011;8703;48.996;9.594;2023-02-15T03:44:32;13.60;;;7.67;;
17175;SDS011;8703;48.996;9.594;2023-02-15T03:47:05;15.07;;;8.13;;
17175;SDS011;8703;48.996;9.594;2023-02-15T03:49:36;12.97;;;7.43;;
17175;SDS011;8703;48.996;9.594;2023-02-15T03:52:08;15.57;;;8.73;;
17175;SDS011;8703;48.996;9.594;2023-02-15T03:54:37;15.23;;;8.00;;
17175;SDS011;8703;48.996;9.594;2023-02-15T03:57:09;16.80;;;8.80;;
17175;SDS011;8703;48.996;9.594;2023-02-15T03:59:55;14.50;;;7.93;;
17175;SDS011;8703;48.996;9.594;2023-02-15T04:02:43;15.40;;;8.67;;
17175;SDS011;8703;48.996;9.594;2023-02-15T04:05:28;14.87;;;7.63;;
17175;SDS011;8703;48.996;9.594;2023-02-15T04:07:57;14.73;;;7.83;;
17175;SDS011;8703;48.996;9.594;2023-02-15T04:10:24;15.70;;;8.07;;
17175;SDS011;8703;48.996;9.594;2023-02-15T04:13:09;15.00;;;8.50;;
17175;SDS011;8703;48.996;9.594;2023-02-15T04:15:36;18.03;;;9.20;;
17175;SDS011;8703;48.996;9.594;2023-02-15T04:18:21;16.37;;;8.90;;
17175;SDS011;8703;48.996;9.594;2023-02-15T04:21:06;15.33;;;8.63;;
17175;SDS011;8703;48.996;9.594;2023-02-15T04:23:52;15.37;;;9.13;;
17175;SDS011;8703;48.996;9.594;2023-02-15T04:26:37;16.67;;;8.77;;
17175;SDS011;8703;48.996;9.594;2023-02-15T04:29:04;15.47;;;8.50;;
17175;SDS011;8703;48.996;9.594;2023-02-15T04:31:32;15.87;;;8.30;;
17175;SDS011;8703;48.996;9.594;2023-02-15T04:33:59;14.53;;;8.37;;
17175;SDS011;8703;48.996;9.594;2023-02-15T04:36:27;15.50;;;8.13;;
17175;SDS011;8703;48.996;9.594;2023-02-15T04:38:55;14.60;;;7.70;;
17175;SDS011;8703;48.996;9.594;2023-02-15T04:41:23;14.13;;;8.67;;
17175;SDS011;8703;48.996;9.594;2023-02-15T04:43:50;14.10;;;8.07;;
17175;SDS011;8703;48.996;9.594;2023-02-15T04:46:17;14.13;;;8.40;;
17175;SDS011;8703;48.996;9.594;2023-02-15T04:48:45;14.27;;;8.57;;
17175;SDS011;8703;48.996;9.594;2023-02-15T04:51:12;14.37;;;7.83;;
17175;SDS011;8703;48.996;9.594;2023-02-15T04:53:40;15.93;;;8.33;;
17175;SDS011;8703;48.996;9.594;2023-02-15T04:56:08;18.77;;;8.93;;
17175;SDS011;8703;48.996;9.594;2023-02-15T04:58:36;16.43;;;9.03;;
17175;SDS011;8703;48.996;9.594;2023-02-15T05:01:06;16.07;;;8.77;;
17175;SDS011;8703;48.996;9.594;2023-02-15T05:03:33;14.73;;;8.00;;
17175;SDS011;8703;48.996;9.594;2023-02-15T05:06:01;13.40;;;7.90;;
17175;SDS011;8703;48.996;9.594;2023-02-15T05:08:28;13.57;;;7.53;;
17175;SDS011;8703;48.996;9.594;2023-02-15T05:10:56;13.70;;;7.73;;
17175;SDS011;8703;48.996;9.594;2023-02-15T05:13:25;13.60;;;8.07;;
17175;SDS011;8703;48.996;9.594;2023-02-15T05:15:53;14.33;;;8.17;;
17175;SDS011;8703;48.996;9.594;2023-02-15T05:18:20;14.37;;;8.00;;
17175;SDS011;8703;48.996;9.594;2023-02-15T05:20:48;18.07;;;8.50;;
17175;SDS011;8703;48.996;9.594;2023-02-15T05:23:15;16.17;;;8.83;;
17175;SDS011;8703;48.996;9.594;2023-02-15T05:25:46;16.57;;;8.83;;
17175;SDS011;8703;48.996;9.594;2023-02-15T05:28:32;15.13;;;8.07;;
17175;SDS011;8703;48.996;9.594;2023-02-15T05:31:03;15.87;;;9.53;;
17175;SDS011;8703;48.996;9.594;2023-02-15T05:33:32;15.93;;;9.20;;
17175;SDS011;8703;48.996;9.594;2023-02-15T05:36:00;17.40;;;8.87;;
17175;SDS011;8703;48.996;9.594;2023-02-15T05:38:28;15.90;;;8.40;;
17175;SDS011;8703;48.996;9.594;2023-02-15T05:40:55;15.43;;;8.60;;
17175;SDS011;8703;48.996;9.594;2023-02-15T05:43:23;15.63;;;8.37;;
17175;SDS011;8703;48.996;9.594;2023-02-15T05:45:53;17.07;;;9.63;;
17175;SDS011;8703;48.996;9.594;2023-02-15T05:48:21;15.50;;;8.93;;
17175;SDS011;8703;48.996;9.594;2023-02-15T05:50:56;15.53;;;9.13;;
17175;SDS011;8703;48.996;9.594;2023-02-15T05:53:24;14.67;;;7.87;;
17175;SDS011;8703;48.996;9.594;2023-02-15T05:55:51;16.33;;;8.80;;
17175;SDS011;8703;48.996;9.594;2023-02-15T05:58:23;14.00;;;7.87;;
17175;SDS011;8703;48.996;9.594;2023-02-15T06:00:52;14.30;;;7.90;;
17175;SDS011;8703;48.996;9.594;2023-02-15T06:03:20;16.73;;;9.13;;
17175;SDS011;8703;48.996;9.594;2023-02-15T06:05:48;22.83;;;11.03;;
17175;SDS011;8703;48.996;9.594;2023-02-15T06:10:51;14.00;;;8.10;;
17175;SDS011;8703;48.996;9.594;2023-02-15T06:13:19;14.00;;;8.23;;
17175;SDS011;8703;48.996;9.594;2023-02-15T06:15:46;15.93;;;8.73;;
17175;SDS011;8703;48.996;9.594;2023-02-15T06:18:15;27.63;;;13.13;;
17175;SDS011;8703;48.996;9.594;2023-02-15T06:20:44;25.67;;;11.90;;
17175;SDS011;8703;48.996;9.594;2023-02-15T06:23:12;21.00;;;10.00;;
17175;SDS011;8703;48.996;9.594;2023-02-15T06:25:39;15.33;;;8.50;;
17175;SDS011;8703;48.996;9.594;2023-02-15T06:28:07;14.70;;;8.17;;
17175;SDS011;8703;48.996;9.594;2023-02-15T06:30:34;18.90;;;10.30;;
17175;SDS011;8703;48.996;9.594;2023-02-15T06:33:02;17.30;;;9.83;;
17175;SDS011;8703;48.996;9.594;2023-02-15T06:35:30;13.37;;;7.60;;
17175;SDS011;8703;48.996;9.594;2023-02-15T06:37:58;19.83;;;9.30;;
17175;SDS011;8703;48.996;9.594;2023-02-15T06:40:25;16.67;;;8.40;;
17175;SDS011;8703;48.996;9.594;2023-02-15T06:42:52;16.67;;;8.43;;
17175;SDS011;8703;48.996;9.594;2023-02-15T06:45:20;18.03;;;9.57;;
17175;SDS011;8703;48.996;9.594;2023-02-15T06:47:47;17.83;;;9.57;;
17175;SDS011;8703;48.996;9.594;2023-02-15T06:50:15;17.03;;;9.40;;
17175;SDS011;8703;48.996;9.594;2023-02-15T06:52:43;16.77;;;8.83;;
17175;SDS011;8703;48.996;9.594;2023-02-15T06:55:11;19.30;;;9.93;;
17175;SDS011;8703;48.996;9.594;2023-02-15T06:57:38;17.30;;;9.27;;
17175;SDS011;8703;48.996;9.594;2023-02-15T07:00:07;18.40;;;12.23;;
17175;SDS011;8703;48.996;9.594;2023-02-15T07:02:35;19.53;;;11.37;;
17175;SDS011;8703;48.996;9.594;2023-02-15T07:05:02;18.43;;;9.67;;
17175;SDS011;8703;48.996;9.594;2023-02-15T07:07:30;17.23;;;8.93;;
17175;SDS011;8703;48.996;9.594;2023-02-15T07:09:58;15.73;;;9.30;;
17175;SDS011;8703;48.996;9.594;2023-02-15T07:12:26;15.73;;;9.07;;
17175;SDS011;8703;48.996;9.594;2023-02-15T07:15:09;15.93;;;8.77;;
17175;SDS011;8703;48.996;9.594;2023-02-15T07:17:37;17.50;;;8.67;;
17175;SDS011;8703;48.996;9.594;2023-02-15T07:20:05;18.07;;;8.60;;
17175;SDS011;8703;48.996;9.594;2023-02-15T07:22:33;14.53;;;8.47;;
17175;SDS011;8703;48.996;9.594;2023-02-15T07:25:03;15.27;;;8.20;;
17175;SDS011;8703;48.996;9.594;2023-02-15T07:27:32;15.20;;;8.50;;
17175;SDS011;8703;48.996;9.594;2023-02-15T07:29:59;16.93;;;8.37;;
17175;SDS011;8703;48.996;9.594;2023-02-15T07:32:27;16.13;;;8.80;;
17175;SDS011;8703;48.996;9.594;2023-02-15T07:34:55;15.97;;;8.90;;
17175;SDS011;8703;48.996;9.594;2023-02-15T07:37:22;19.00;;;9.83;;
17175;SDS011;8703;48.996;9.594;2023-02-15T07:39:50;20.73;;;9.93;;
17175;SDS011;8703;48.996;9.594;2023-02-15T07:42:19;17.80;;;9.67;;
17175;SDS011;8703;48.996;9.594;2023-02-15T07:44:47;36.23;;;14.80;;
17175;SDS011;8703;48.996;9.594;2023-02-15T07:47:14;22.87;;;11.20;;
17175;SDS011;8703;48.996;9.594;2023-02-15T07:49:42;18.80;;;9.70;;
17175;SDS011;8703;48.996;9.594;2023-02-15T07:52:09;17.70;;;9.70;;
17175;SDS011;8703;48.996;9.594;2023-02-15T07:54:36;18.50;;;10.30;;
17175;SDS011;8703;48.996;9.594;2023-02-15T07:57:04;18.77;;;9.77;;
17175;SDS011;8703;48.996;9.594;2023-02-15T07:59:32;17.30;;;9.40;;
17175;SDS011;8703;48.996;9.594;2023-02-15T08:02:00;17.97;;;8.90;;
17175;SDS011;8703;48.996;9.594;2023-02-15T08:04:27;17.17;;;9.33;;
17175;SDS011;8703;48.996;9.594;2023-02-15T08:06:54;17.77;;;9.23;;
17175;SDS011;8703;48.996;9.594;2023-02-15T08:09:22;19.00;;;10.17;;
17175;SDS011;8703;48.996;9.594;2023-02-15T08:11:49;16.83;;;9.40;;
17175;SDS011;8703;48.996;9.594;2023-02-15T08:14:17;24.03;;;12.53;;
17175;SDS011;8703;48.996;9.594;2023-02-15T08:16:47;31.23;;;14.77;;
17175;SDS011;8703;48.996;9.594;2023-02-15T08:19:16;29.63;;;15.33;;
17175;SDS011;8703;48.996;9.594;2023-02-15T08:21:45;23.30;;;11.53;;
17175;SDS011;8703;48.996;9.594;2023-02-15T08:24:14;25.83;;;12.63;;
17175;SDS011;8703;48.996;9.594;2023-02-15T08:26:42;21.60;;;11.97;;
17175;SDS011;8703;48.996;9.594;2023-02-15T08:29:16;23.33;;;11.83;;
17175;SDS011;8703;48.996;9.594;2023-02-15T08:31:45;25.93;;;13.03;;
17175;SDS011;8703;48.996;9.594;2023-02-15T08:34:15;25.53;;;13.43;;
17175;SDS011;8703;48.996;9.594;2023-02-15T08:36:44;25.03;;;12.40;;
17175;SDS011;8703;48.996;9.594;2023-02-15T08:39:12;25.17;;;13.10;;
17175;SDS011;8703;48.996;9.594;2023-02-15T08:41:43;24.97;;;13.17;;
17175;SDS011;8703;48.996;9.594;2023-02-15T08:44:12;25.17;;;13.23;;
17175;SDS011;8703;48.996;9.594;2023-02-15T08:46:41;23.77;;;12.30;;
17175;SDS011;8703;48.996;9.594;2023-02-15T08:49:11;27.17;;;13.23;;
17175;SDS011;8703;48.996;9.594;2023-02-15T08:51:41;26.97;;;13.73;;
17175;SDS011;8703;48.996;9.594;2023-02-15T08:54:09;24.13;;;12.70;;
17175;SDS011;8703;48.996;9.594;2023-02-15T08:56:38;27.40;;;12.90;;
17175;SDS011;8703;48.996;9.594;2023-02-15T08:59:07;22.87;;;12.33;;
17175;SDS011;8703;48.996;9.594;2023-02-15T09:01:38;26.13;;;12.67;;
17175;SDS011;8703;48.996;9.594;2023-02-15T09:04:06;25.80;;;13.27;;
17175;SDS011;8703;48.996;9.594;2023-02-15T09:06:36;26.93;;;13.07;;
17175;SDS011;8703;48.996;9.594;2023-02-15T09:09:04;21.63;;;12.27;;
17175;SDS011;8703;48.996;9.594;2023-02-15T09:11:33;26.10;;;12.67;;
17175;SDS011;8703;48.996;9.594;2023-02-15T09:14:02;25.40;;;13.27;;
17175;SDS011;8703;48.996;9.594;2023-02-15T09:16:33;26.53;;;13.30;;
17175;SDS011;8703;48.996;9.594;2023-02-15T09:19:01;24.33;;;13.43;;
17175;SDS011;8703;48.996;9.594;2023-02-15T09:21:29;26.03;;;13.53;;
17175;SDS011;8703;48.996;9.594;2023-02-15T09:23:59;25.33;;;12.90;;
17175;SDS011;8703;48.996;9.594;2023-02-15T09:26:28;27.37;;;13.60;;
17175;SDS011;8703;48.996;9.594;2023-02-15T09:28:57;23.97;;;13.17;;
17175;SDS011;8703;48.996;9.594;2023-02-15T09:31:26;24.30;;;13.30;;
17175;SDS011;8703;48.996;9.594;2023-02-15T09:33:55;29.17;;;15.00;;
17175;SDS011;8703;48.996;9.594;2023-02-15T09:36:24;28.13;;;15.23;;
17175;SDS011;8703;48.996;9.594;2023-02-15T09:38:58;28.63;;;15.23;;
17175;SDS011;8703;48.996;9.594;2023-02-15T09:41:45;30.13;;;16.13;;
17175;SDS011;8703;48.996;9.594;2023-02-15T09:44:38;35.83;;;15.17;;
17175;SDS011;8703;48.996;9.594;2023-02-15T09:47:18;29.33;;;14.70;;
17175;SDS011;8703;48.996;9.594;2023-02-15T09:49:52;30.87;;;14.93;;
17175;SDS011;8703;48.996;9.594;2023-02-15T09:52:27;29.50;;;14.73;;
17175;SDS011;8703;48.996;9.594;2023-02-15T09:58:07;27.87;;;14.23;;
17175;SDS011;8703;48.996;9.594;2023-02-15T10:00:42;26.93;;;13.97;;
17175;SDS011;8703;48.996;9.594;2023-02-15T10:03:22;31.50;;;15.20;;
17175;SDS011;8703;48.996;9.594;2023-02-15T10:06:05;29.17;;;14.43;;
17175;SDS011;8703;48.996;9.594;2023-02-15T10:08:53;29.13;;;15.30;;
17175;SDS011;8703;48.996;9.594;2023-02-15T10:11:26;27.27;;;15.03;;
17175;SDS011;8703;48.996;9.594;2023-02-15T10:14:13;24.70;;;14.13;;
17175;SDS011;8703;48.996;9.594;2023-02-15T10:16:49;24.17;;;13.53;;
17175;SDS011;8703;48.996;9.594;2023-02-15T10:19:23;26.00;;;13.77;;
17175;SDS011;8703;48.996;9.594;2023-02-15T10:21:59;28.37;;;15.57;;
17175;SDS011;8703;48.996;9.594;2023-02-15T10:24:47;28.90;;;14.47;;
17175;SDS011;8703;48.996;9.594;2023-02-15T10:27:38;23.47;;;14.07;;
17175;SDS011;8703;48.996;9.594;2023-02-15T10:30:13;25.67;;;14.90;;
17175;SDS011;8703;48.996;9.594;2023-02-15T10:32:43;24.60;;;14.00;;
17175;SDS011;8703;48.996;9.594;2023-02-15T10:35:19;26.83;;;14.23;;
17175;SDS011;8703;48.996;9.594;2023-02-15T10:37:52;24.17;;;13.67;;
17175;SDS011;8703;48.996;9.594;2023-02-15T10:40:28;23.47;;;12.77;;
17175;SDS011;8703;48.996;9.594;2023-02-15T10:43:08;22.13;;;13.57;;
17175;SDS011;8703;48.996;9.594;2023-02-15T10:45:49;23.83;;;13.77;;
17175;SDS011;8703;48.996;9.594;2023-02-15T10:48:23;27.33;;;15.90;;
17175;SDS011;8703;48.996;9.594;2023-02-15T10:51:01;25.57;;;14.17;;
17175;SDS011;8703;48.996;9.594;2023-02-15T10:53:39;39.80;;;20.47;;
17175;SDS011;8703;48.996;9.594;2023-02-15T10:56:20;34.17;;;18.90;;
17175;SDS011;8703;48.996;9.594;2023-02-15T11:01:59;21.70;;;12.93;;
17175;SDS011;8703;48.996;9.594;2023-02-15T11:04:39;26.50;;;13.73;;
17175;SDS011;8703;48.996;9.594;2023-02-15T11:07:14;32.50;;;16.73;;
17175;SDS011;8703;48.996;9.594;2023-02-15T11:09:45;19.57;;;11.97;;
17175;SDS011;8703;48.996;9.594;2023-02-15T11:12:15;24.83;;;14.70;;
17175;SDS011;8703;48.996;9.594;2023-02-15T11:14:45;32.27;;;18.37;;
17175;SDS011;8703;48.996;9.594;2023-02-15T11:17:17;40.33;;;21.40;;
17175;SDS011;8703;48.996;9.594;2023-02-15T11:19:49;20.33;;;11.97;;
17175;SDS011;8703;48.996;9.594;2023-02-15T11:22:21;21.77;;;13.13;;
17175;SDS011;8703;48.996;9.594;2023-02-15T11:24:49;27.43;;;14.73;;
17175;SDS011;8703;48.996;9.594;2023-02-15T11:27:17;18.87;;;11.47;;
17175;SDS011;8703;48.996;9.594;2023-02-15T11:29:50;18.30;;;11.90;;
17175;SDS011;8703;48.996;9.594;2023-02-15T11:32:22;20.43;;;11.93;;
17175;SDS011;8703;48.996;9.594;2023-02-15T11:34:51;19.17;;;12.10;;
17175;SDS011;8703;48.996;9.594;2023-02-15T11:37:23;20.00;;;10.80;;
17175;SDS011;8703;48.996;9.594;2023-02-15T11:40:01;19.23;;;12.10;;
17175;SDS011;8703;48.996;9.594;2023-02-15T11:42:29;16.63;;;10.17;;
17175;SDS011;8703;48.996;9.594;2023-02-15T11:44:59;18.00;;;10.70;;
17175;SDS011;8703;48.996;9.594;2023-02-15T11:47:29;17.27;;;10.33;;
17175;SDS011;8703;48.996;9.594;2023-02-15T11:49:57;16.80;;;10.53;;
17175;SDS011;8703;48.996;9.594;2023-02-15T11:52:25;20.67;;;10.90;;
17175;SDS011;8703;48.996;9.594;2023-02-15T11:54:52;15.67;;;10.73;;
17175;SDS011;8703;48.996;9.594;2023-02-15T11:57:22;17.73;;;12.37;;
17175;SDS011;8703;48.996;9.594;2023-02-15T11:59:55;17.60;;;12.20;;
17175;SDS011;8703;48.996;9.594;2023-02-15T12:02:24;17.33;;;11.03;;
17175;SDS011;8703;48.996;9.594;2023-02-15T12:04:57;16.57;;;12.07;;
17175;SDS011;8703;48.996;9.594;2023-02-15T12:07:27;17.73;;;12.17;;
17175;SDS011;8703;48.996;9.594;2023-02-15T12:09:59;17.53;;;11.63;;
17175;SDS011;8703;48.996;9.594;2023-02-15T12:12:32;18.17;;;11.50;;
17175;SDS011;8703;48.996;9.594;2023-02-15T12:15:01;16.63;;;11.47;;
17175;SDS011;8703;48.996;9.594;2023-02-15T12:20:20;16.83;;;10.83;;
17175;SDS011;8703;48.996;9.594;2023-02-15T12:22:52;16.43;;;9.67;;
17175;SDS011;8703;48.996;9.594;2023-02-15T12:25:22;13.33;;;8.60;;
17175;SDS011;8703;48.996;9.594;2023-02-15T12:27:51;27.73;;;9.40;;
17175;SDS011;8703;48.996;9.594;2023-02-15T12:30:20;12.77;;;7.73;;
17175;SDS011;8703;48.996;9.594;2023-02-15T12:32:50;12.70;;;7.93;;
17175;SDS011;8703;48.996;9.594;2023-02-15T12:35:24;11.27;;;8.00;;
17175;SDS011;8703;48.996;9.594;2023-02-15T12:37:54;10.77;;;7.17;;
17175;SDS011;8703;48.996;9.594;2023-02-15T12:40:23;11.40;;;7.17;;
17175;SDS011;8703;48.996;9.594;2023-02-15T12:42:52;10.97;;;6.43;;
17175;SDS011;8703;48.996;9.594;2023-02-15T12:45:22;9.00;;;6.07;;
17175;SDS011;8703;48.996;9.594;2023-02-15T12:48:13;10.77;;;7.20;;
17175;SDS011;8703;48.996;9.594;2023-02-15T12:50:43;8.40;;;6.07;;
17175;SDS011;8703;48.996;9.594;2023-02-15T12:53:14;11.63;;;7.00;;
17175;SDS011;8703;48.996;9.594;2023-02-15T12:55:51;8.83;;;6.17;;
17175;SDS011;8703;48.996;9.594;2023-02-15T12:58:20;9.03;;;6.77;;
17175;SDS011;8703;48.996;9.594;2023-02-15T13:01:01;11.50;;;7.37;;
17175;SDS011;8703;48.996;9.594;2023-02-15T13:03:30;11.60;;;7.50;;
17175;SDS011;8703;48.996;9.594;2023-02-15T13:05:59;12.57;;;7.20;;
17175;SDS011;8703;48.996;9.594;2023-02-15T13:08:33;11.03;;;8.10;;
17175;SDS011;8703;48.996;9.594;2023-02-15T13:11:03;12.40;;;8.20;;
17175;SDS011;8703;48.996;9.594;2023-02-15T13:13:33;13.83;;;7.57;;
17175;SDS011;8703;48.996;9.594;2023-02-15T13:16:02;13.73;;;6.80;;
17175;SDS011;8703;48.996;9.594;2023-02-15T13:18:31;11.33;;;6.77;;
17175;SDS011;8703;48.996;9.594;2023-02-15T13:21:05;8.97;;;6.07;;
17175;SDS011;8703;48.996;9.594;2023-02-15T13:23:36;9.17;;;5.70;;
17175;SDS011;8703;48.996;9.594;2023-02-15T13:26:08;7.77;;;5.90;;
17175;SDS011;8703;48.996;9.594;2023-02-15T13:28:41;8.50;;;6.20;;
17175;SDS011;8703;48.996;9.594;2023-02-15T13:31:12;9.30;;;6.17;;
17175;SDS011;8703;48.996;9.594;2023-02-15T13:33:42;9.17;;;6.10;;
17175;SDS011;8703;48.996;9.594;2023-02-15T13:36:14;9.30;;;6.03;;
17175;SDS011;8703;48.996;9.594;2023-02-15T13:38:46;9.53;;;5.73;;
17175;SDS011;8703;48.996;9.594;2023-02-15T13:41:16;11.07;;;6.57;;
17175;SDS011;8703;48.996;9.594;2023-02-15T13:43:48;9.43;;;5.80;;
17175;SDS011;8703;48.996;9.594;2023-02-15T13:46:21;8.43;;;5.73;;
17175;SDS011;8703;48.996;9.594;2023-02-15T13:48:58;9.07;;;5.63;;
17175;SDS011;8703;48.996;9.594;2023-02-15T13:51:36;7.87;;;6.00;;
17175;SDS011;8703;48.996;9.594;2023-02-15T13:54:15;8.43;;;6.07;;
17175;SDS011;8703;48.996;9.594;2023-02-15T13:57:03;11.40;;;6.40;;
17175;SDS011;8703;48.996;9.594;2023-02-15T13:59:52;8.00;;;5.73;;
17175;SDS011;8703;48.996;9.594;2023-02-15T14:02:30;10.37;;;5.80;;
17175;SDS011;8703;48.996;9.594;2023-02-15T14:05:21;10.33;;;6.10;;
17175;SDS011;8703;48.996;9.594;2023-02-15T14:08:13;9.43;;;6.50;;
17175;SDS011;8703;48.996;9.594;2023-02-15T14:10:50;8.67;;;5.70;;
17175;SDS011;8703;48.996;9.594;2023-02-15T14:13:31;7.87;;;5.60;;
17175;SDS011;8703;48.996;9.594;2023-02-15T14:16:07;10.82;;;6.10;;
17175;SDS011;8703;48.996;9.594;2023-02-15T14:18:39;8.77;;;6.00;;
17175;SDS011;8703;48.996;9.594;2023-02-15T14:21:10;9.00;;;5.77;;
17175;SDS011;8703;48.996;9.594;2023-02-15T14:23:52;9.13;;;6.10;;
17175;SDS011;8703;48.996;9.594;2023-02-15T14:26:26;9.48;;;5.85;;
17175;SDS011;8703;48.996;9.594;2023-02-15T14:29:04;12.05;;;6.57;;
17175;SDS011;8703;48.996;9.594;2023-02-15T14:31:35;12.13;;;6.20;;
17175;SDS011;8703;48.996;9.594;2023-02-15T14:34:07;9.53;;;5.93;;
17175;SDS011;8703;48.996;9.594;2023-02-15T14:36:43;8.32;;;6.03;;
17175;SDS011;8703;48.996;9.594;2023-02-15T14:39:15;8.95;;;5.57;;
17175;SDS011;8703;48.996;9.594;2023-02-15T14:42:07;10.50;;;6.20;;
17175;SDS011;8703;48.996;9.594;2023-02-15T14:44:42;8.95;;;5.10;;
17175;SDS011;8703;48.996;9.594;2023-02-15T14:47:15;7.97;;;4.88;;
17175;SDS011;8703;48.996;9.594;2023-02-15T14:49:45;6.72;;;4.80;;
17175;SDS011;8703;48.996;9.594;2023-02-15T14:52:12;7.97;;;4.85;;
17175;SDS011;8703;48.996;9.594;2023-02-15T14:54:57;5.63;;;4.18;;
17175;SDS011;8703;48.996;9.594;2023-02-15T14:57:29;9.48;;;4.22;;
17175;SDS011;8703;48.996;9.594;2023-02-15T14:59:58;6.85;;;5.13;;
17175;SDS011;8703;48.996;9.594;2023-02-15T15:02:39;6.20;;;4.55;;
17175;SDS011;8703;48.996;9.594;2023-02-15T15:05:10;6.43;;;4.93;;
17175;SDS011;8703;48.996;9.594;2023-02-15T15:07:42;6.60;;;4.70;;
17175;SDS011;8703;48.996;9.594;2023-02-15T15:10:34;6.43;;;3.97;;
17175;SDS011;8703;48.996;9.594;2023-02-15T15:19:11;7.03;;;4.18;;
17175;SDS011;8703;48.996;9.594;2023-02-15T15:21:55;6.00;;;3.90;;
17175;SDS011;8703;48.996;9.594;2023-02-15T15:33:31;5.73;;;3.80;;
17175;SDS011;8703;48.996;9.594;2023-02-15T15:39:47;4.73;;;3.70;;
17175;SDS011;8703;48.996;9.594;2023-02-15T15:42:37;4.80;;;3.50;;